sensor_id;sensor_type;location;lat;lon;timestamp;P1;durP1;ratioP1;P2;durP2;ratioP2
40793;SDS011;26502;51.886;15.604;2023-04-15T00:05:36;8.80;;;7.20;;
40793;SDS011;26502;51.886;15.604;2023-04-15T00:10:41;9.20;;;6.70;;
40793;SDS011;26502;51.886;15.604;2023-04-15T00:15:48;9.70;;;7.00;;
40793;SDS011;26502;51.886;15.604;2023-04-15T00:20:54;14.70;;;7.30;;
40793;SDS011;26502;51.886;15.604;2023-04-15T00:26:01;12.70;;;7.40;;
40793;SDS011;26502;51.886;15.604;2023-04-15T00:31:07;9.80;;;7.00;;
40793;SDS011;26502;51.886;15.604;2023-04-15T00:36:14;9.90;;;7.20;;
40793;SDS011;26502;51.886;15.604;2023-04-15T00:41:20;9.70;;;7.00;;
40793;SDS011;26502;51.886;15.604;2023-04-15T00:46:26;11.50;;;7.40;;
40793;SDS011;26502;51.886;15.604;2023-04-15T00:51:34;10.10;;;7.90;;
40793;SDS011;26502;51.886;15.604;2023-04-15T00:56:40;10.90;;;6.70;;
40793;SDS011;26502;51.886;15.604;2023-04-15T01:01:48;9.30;;;7.10;;
40793;SDS011;26502;51.886;15.604;2023-04-15T01:06:54;11.50;;;7.20;;
40793;SDS011;26502;51.886;15.604;2023-04-15T01:12:01;12.40;;;6.90;;
40793;SDS011;26502;51.886;15.604;2023-04-15T01:17:07;12.60;;;7.90;;
40793;SDS011;26502;51.886;15.604;2023-04-15T01:22:16;12.30;;;7.00;;
40793;SDS011;26502;51.886;15.604;2023-04-15T01:27:23;15.80;;;7.30;;
40793;SDS011;26502;51.886;15.604;2023-04-15T01:32:29;11.60;;;7.10;;
40793;SDS011;26502;51.886;15.604;2023-04-15T01:37:35;10.50;;;7.20;;
40793;SDS011;26502;51.886;15.604;2023-04-15T01:42:42;11.20;;;7.20;;
40793;SDS011;26502;51.886;15.604;2023-04-15T01:47:48;9.40;;;6.50;;
40793;SDS011;26502;51.886;15.604;2023-04-15T01:52:55;10.40;;;7.20;;
40793;SDS011;26502;51.886;15.604;2023-04-15T01:58:01;10.10;;;7.40;;
40793;SDS011;26502;51.886;15.604;2023-04-15T02:03:07;10.30;;;6.90;;
40793;SDS011;26502;51.886;15.604;2023-04-15T02:08:14;15.20;;;7.40;;
40793;SDS011;26502;51.886;15.604;2023-04-15T02:13:20;12.60;;;6.50;;
40793;SDS011;26502;51.886;15.604;2023-04-15T02:18:26;9.90;;;6.60;;
40793;SDS011;26502;51.886;15.604;2023-04-15T02:23:32;13.50;;;6.60;;
40793;SDS011;26502;51.886;15.604;2023-04-15T02:28:38;7.90;;;6.50;;
40793;SDS011;26502;51.886;15.604;2023-04-15T02:33:44;8.00;;;6.60;;
40793;SDS011;26502;51.886;15.604;2023-04-15T02:38:51;9.80;;;7.00;;
40793;SDS011;26502;51.886;15.604;2023-04-15T02:43:58;8.70;;;7.30;;
40793;SDS011;26502;51.886;15.604;2023-04-15T02:49:05;10.30;;;7.20;;
40793;SDS011;26502;51.886;15.604;2023-04-15T02:54:12;9.70;;;7.60;;
40793;SDS011;26502;51.886;15.604;2023-04-15T02:59:18;10.70;;;7.00;;
40793;SDS011;26502;51.886;15.604;2023-04-15T03:04:25;11.90;;;8.10;;
40793;SDS011;26502;51.886;15.604;2023-04-15T03:09:32;11.20;;;7.60;;
40793;SDS011;26502;51.886;15.604;2023-04-15T03:14:39;14.00;;;7.70;;
40793;SDS011;26502;51.886;15.604;2023-04-15T03:19:46;11.60;;;7.90;;
40793;SDS011;26502;51.886;15.604;2023-04-15T03:24:52;9.50;;;8.00;;
40793;SDS011;26502;51.886;15.604;2023-04-15T03:29:58;13.20;;;8.70;;
40793;SDS011;26502;51.886;15.604;2023-04-15T03:35:07;13.60;;;8.60;;
40793;SDS011;26502;51.886;15.604;2023-04-15T03:40:14;9.90;;;8.10;;
40793;SDS011;26502;51.886;15.604;2023-04-15T03:45:20;13.90;;;8.90;;
40793;SDS011;26502;51.886;15.604;2023-04-15T03:50:26;10.00;;;8.00;;
40793;SDS011;26502;51.886;15.604;2023-04-15T03:55:33;11.20;;;8.40;;
40793;SDS011;26502;51.886;15.604;2023-04-15T04:00:39;9.20;;;8.00;;
40793;SDS011;26502;51.886;15.604;2023-04-15T04:05:45;10.70;;;8.00;;
40793;SDS011;26502;51.886;15.604;2023-04-15T04:10:51;12.90;;;8.90;;
40793;SDS011;26502;51.886;15.604;2023-04-15T04:15:57;15.00;;;9.80;;
40793;SDS011;26502;51.886;15.604;2023-04-15T04:21:03;11.20;;;7.90;;
40793;SDS011;26502;51.886;15.604;2023-04-15T04:26:10;15.40;;;9.40;;
40793;SDS011;26502;51.886;15.604;2023-04-15T04:31:16;12.10;;;9.80;;
40793;SDS011;26502;51.886;15.604;2023-04-15T04:36:22;11.10;;;8.90;;
40793;SDS011;26502;51.886;15.604;2023-04-15T04:41:28;14.50;;;9.70;;
40793;SDS011;26502;51.886;15.604;2023-04-15T04:46:34;12.50;;;9.50;;
40793;SDS011;26502;51.886;15.604;2023-04-15T04:51:40;10.10;;;8.80;;
40793;SDS011;26502;51.886;15.604;2023-04-15T04:56:46;13.50;;;10.00;;
40793;SDS011;26502;51.886;15.604;2023-04-15T05:01:53;12.60;;;10.00;;
40793;SDS011;26502;51.886;15.604;2023-04-15T05:06:59;13.00;;;9.60;;
40793;SDS011;26502;51.886;15.604;2023-04-15T05:12:06;12.50;;;9.70;;
40793;SDS011;26502;51.886;15.604;2023-04-15T05:17:17;12.90;;;9.90;;
40793;SDS011;26502;51.886;15.604;2023-04-15T05:22:23;11.80;;;10.20;;
40793;SDS011;26502;51.886;15.604;2023-04-15T05:27:29;13.90;;;10.30;;
40793;SDS011;26502;51.886;15.604;2023-04-15T05:32:36;15.10;;;10.90;;
40793;SDS011;26502;51.886;15.604;2023-04-15T05:37:42;12.10;;;10.80;;
40793;SDS011;26502;51.886;15.604;2023-04-15T05:42:49;12.70;;;10.30;;
40793;SDS011;26502;51.886;15.604;2023-04-15T05:47:55;12.60;;;10.80;;
40793;SDS011;26502;51.886;15.604;2023-04-15T05:53:01;16.00;;;11.30;;
40793;SDS011;26502;51.886;15.604;2023-04-15T05:58:07;17.40;;;12.00;;
40793;SDS011;26502;51.886;15.604;2023-04-15T06:03:14;13.40;;;10.60;;
40793;SDS011;26502;51.886;15.604;2023-04-15T06:08:20;13.30;;;11.00;;
40793;SDS011;26502;51.886;15.604;2023-04-15T06:13:27;14.80;;;10.90;;
40793;SDS011;26502;51.886;15.604;2023-04-15T06:18:33;14.10;;;11.20;;
40793;SDS011;26502;51.886;15.604;2023-04-15T06:23:40;13.40;;;11.70;;
40793;SDS011;26502;51.886;15.604;2023-04-15T06:28:47;13.30;;;11.10;;
40793;SDS011;26502;51.886;15.604;2023-04-15T06:33:53;15.10;;;11.70;;
40793;SDS011;26502;51.886;15.604;2023-04-15T06:38:59;15.00;;;11.50;;
40793;SDS011;26502;51.886;15.604;2023-04-15T06:44:06;13.10;;;11.20;;
40793;SDS011;26502;51.886;15.604;2023-04-15T06:49:13;14.60;;;11.80;;
40793;SDS011;26502;51.886;15.604;2023-04-15T06:54:19;14.40;;;12.70;;
40793;SDS011;26502;51.886;15.604;2023-04-15T06:59:25;16.50;;;12.30;;
40793;SDS011;26502;51.886;15.604;2023-04-15T07:04:32;13.40;;;12.10;;
40793;SDS011;26502;51.886;15.604;2023-04-15T07:09:38;13.80;;;12.40;;
40793;SDS011;26502;51.886;15.604;2023-04-15T07:14:44;14.60;;;13.00;;
40793;SDS011;26502;51.886;15.604;2023-04-15T07:19:51;14.40;;;12.90;;
40793;SDS011;26502;51.886;15.604;2023-04-15T07:24:57;15.30;;;12.70;;
40793;SDS011;26502;51.886;15.604;2023-04-15T07:30:04;15.70;;;12.60;;
40793;SDS011;26502;51.886;15.604;2023-04-15T07:35:12;18.10;;;12.40;;
40793;SDS011;26502;51.886;15.604;2023-04-15T07:40:18;13.50;;;11.70;;
40793;SDS011;26502;51.886;15.604;2023-04-15T07:45:25;14.80;;;11.60;;
40793;SDS011;26502;51.886;15.604;2023-04-15T07:50:31;13.70;;;10.60;;
40793;SDS011;26502;51.886;15.604;2023-04-15T07:55:38;16.30;;;12.30;;
40793;SDS011;26502;51.886;15.604;2023-04-15T08:00:44;16.50;;;12.40;;
40793;SDS011;26502;51.886;15.604;2023-04-15T08:05:51;14.00;;;12.50;;
40793;SDS011;26502;51.886;15.604;2023-04-15T08:10:57;14.80;;;12.30;;
40793;SDS011;26502;51.886;15.604;2023-04-15T08:21:32;14.40;;;12.80;;
40793;SDS011;26502;51.886;15.604;2023-04-15T08:26:39;14.70;;;13.20;;
40793;SDS011;26502;51.886;15.604;2023-04-15T08:31:46;16.00;;;12.60;;
40793;SDS011;26502;51.886;15.604;2023-04-15T08:36:52;15.50;;;13.20;;
40793;SDS011;26502;51.886;15.604;2023-04-15T08:42:01;16.00;;;14.10;;
40793;SDS011;26502;51.886;15.604;2023-04-15T08:47:12;13.80;;;12.30;;
40793;SDS011;26502;51.886;15.604;2023-04-15T08:52:21;15.80;;;13.30;;
40793;SDS011;26502;51.886;15.604;2023-04-15T08:57:29;18.60;;;13.00;;
40793;SDS011;26502;51.886;15.604;2023-04-15T09:02:36;17.30;;;13.00;;
40793;SDS011;26502;51.886;15.604;2023-04-15T09:07:43;17.20;;;12.80;;
40793;SDS011;26502;51.886;15.604;2023-04-15T09:12:50;12.50;;;11.10;;
40793;SDS011;26502;51.886;15.604;2023-04-15T09:17:57;10.70;;;9.60;;
40793;SDS011;26502;51.886;15.604;2023-04-15T09:23:10;12.50;;;10.60;;
40793;SDS011;26502;51.886;15.604;2023-04-15T09:28:22;13.30;;;9.90;;
40793;SDS011;26502;51.886;15.604;2023-04-15T09:33:29;11.20;;;9.40;;
40793;SDS011;26502;51.886;15.604;2023-04-15T09:38:36;9.20;;;8.20;;
40793;SDS011;26502;51.886;15.604;2023-04-15T09:44:00;9.80;;;7.60;;
40793;SDS011;26502;51.886;15.604;2023-04-15T09:49:07;9.40;;;8.60;;
40793;SDS011;26502;51.886;15.604;2023-04-15T09:54:17;11.10;;;8.40;;
40793;SDS011;26502;51.886;15.604;2023-04-15T09:59:25;10.10;;;7.50;;
40793;SDS011;26502;51.886;15.604;2023-04-15T10:04:31;6.10;;;5.50;;
40793;SDS011;26502;51.886;15.604;2023-04-15T10:09:39;5.50;;;4.50;;
40793;SDS011;26502;51.886;15.604;2023-04-15T10:14:50;5.30;;;4.50;;
40793;SDS011;26502;51.886;15.604;2023-04-15T10:20:09;5.80;;;5.10;;
40793;SDS011;26502;51.886;15.604;2023-04-15T10:30:22;4.40;;;4.00;;
40793;SDS011;26502;51.886;15.604;2023-04-15T10:35:28;6.80;;;4.90;;
40793;SDS011;26502;51.886;15.604;2023-04-15T10:40:36;6.20;;;4.70;;
40793;SDS011;26502;51.886;15.604;2023-04-15T10:45:44;7.70;;;5.50;;
40793;SDS011;26502;51.886;15.604;2023-04-15T10:50:56;5.90;;;5.10;;
40793;SDS011;26502;51.886;15.604;2023-04-15T10:56:04;5.00;;;4.50;;
40793;SDS011;26502;51.886;15.604;2023-04-15T11:01:11;5.80;;;5.20;;
40793;SDS011;26502;51.886;15.604;2023-04-15T11:06:19;6.30;;;5.60;;
40793;SDS011;26502;51.886;15.604;2023-04-15T11:17:11;5.50;;;4.90;;
40793;SDS011;26502;51.886;15.604;2023-04-15T11:22:17;6.20;;;5.20;;
40793;SDS011;26502;51.886;15.604;2023-04-15T11:27:23;6.10;;;5.50;;
40793;SDS011;26502;51.886;15.604;2023-04-15T11:32:30;6.10;;;5.50;;
40793;SDS011;26502;51.886;15.604;2023-04-15T11:37:36;6.50;;;5.80;;
40793;SDS011;26502;51.886;15.604;2023-04-15T11:42:42;6.20;;;5.20;;
40793;SDS011;26502;51.886;15.604;2023-04-15T11:47:49;6.70;;;5.80;;
40793;SDS011;26502;51.886;15.604;2023-04-15T11:52:58;5.50;;;4.70;;
40793;SDS011;26502;51.886;15.604;2023-04-15T11:58:09;5.70;;;5.20;;
40793;SDS011;26502;51.886;15.604;2023-04-15T12:03:18;6.40;;;5.40;;
40793;SDS011;26502;51.886;15.604;2023-04-15T12:08:33;5.20;;;4.50;;
40793;SDS011;26502;51.886;15.604;2023-04-15T12:13:53;4.30;;;3.90;;
40793;SDS011;26502;51.886;15.604;2023-04-15T12:19:05;4.50;;;4.10;;
40793;SDS011;26502;51.886;15.604;2023-04-15T12:24:13;4.90;;;4.10;;
40793;SDS011;26502;51.886;15.604;2023-04-15T12:29:25;3.80;;;3.20;;
40793;SDS011;26502;51.886;15.604;2023-04-15T12:34:34;3.60;;;3.30;;
40793;SDS011;26502;51.886;15.604;2023-04-15T12:39:42;3.40;;;3.10;;
40793;SDS011;26502;51.886;15.604;2023-04-15T12:44:51;3.40;;;3.10;;
40793;SDS011;26502;51.886;15.604;2023-04-15T12:49:57;4.60;;;2.70;;
40793;SDS011;26502;51.886;15.604;2023-04-15T12:55:05;3.30;;;3.00;;
40793;SDS011;26502;51.886;15.604;2023-04-15T13:00:13;3.10;;;2.70;;
40793;SDS011;26502;51.886;15.604;2023-04-15T13:05:20;3.40;;;3.10;;
40793;SDS011;26502;51.886;15.604;2023-04-15T13:10:27;5.30;;;3.20;;
40793;SDS011;26502;51.886;15.604;2023-04-15T13:15:33;2.80;;;2.40;;
40793;SDS011;26502;51.886;15.604;2023-04-15T13:20:40;2.80;;;2.40;;
40793;SDS011;26502;51.886;15.604;2023-04-15T13:25:46;2.50;;;2.30;;
40793;SDS011;26502;51.886;15.604;2023-04-15T13:30:52;2.70;;;2.40;;
40793;SDS011;26502;51.886;15.604;2023-04-15T13:35:59;2.00;;;1.80;;
40793;SDS011;26502;51.886;15.604;2023-04-15T13:41:05;2.60;;;2.00;;
40793;SDS011;26502;51.886;15.604;2023-04-15T13:46:11;4.60;;;2.20;;
40793;SDS011;26502;51.886;15.604;2023-04-15T13:51:17;2.90;;;1.80;;
40793;SDS011;26502;51.886;15.604;2023-04-15T13:56:23;1.70;;;1.50;;
40793;SDS011;26502;51.886;15.604;2023-04-15T14:01:30;2.80;;;1.20;;
40793;SDS011;26502;51.886;15.604;2023-04-15T14:06:36;1.70;;;1.10;;
40793;SDS011;26502;51.886;15.604;2023-04-15T14:11:42;2.60;;;1.20;;
40793;SDS011;26502;51.886;15.604;2023-04-15T14:16:48;1.60;;;1.30;;
40793;SDS011;26502;51.886;15.604;2023-04-15T14:21:54;1.20;;;1.00;;
40793;SDS011;26502;51.886;15.604;2023-04-15T14:27:01;1.30;;;1.00;;
40793;SDS011;26502;51.886;15.604;2023-04-15T14:32:07;1.80;;;1.30;;
40793;SDS011;26502;51.886;15.604;2023-04-15T14:37:13;1.10;;;1.00;;
40793;SDS011;26502;51.886;15.604;2023-04-15T14:42:19;1.50;;;1.20;;
40793;SDS011;26502;51.886;15.604;2023-04-15T14:47:25;1.00;;;0.80;;
40793;SDS011;26502;51.886;15.604;2023-04-15T14:52:32;0.70;;;0.70;;
40793;SDS011;26502;51.886;15.604;2023-04-15T14:57:41;1.40;;;0.70;;
40793;SDS011;26502;51.886;15.604;2023-04-15T15:02:47;1.30;;;0.70;;
40793;SDS011;26502;51.886;15.604;2023-04-15T15:07:54;0.90;;;0.80;;
40793;SDS011;26502;51.886;15.604;2023-04-15T15:13:00;2.10;;;0.70;;
40793;SDS011;26502;51.886;15.604;2023-04-15T15:18:07;0.60;;;0.60;;
40793;SDS011;26502;51.886;15.604;2023-04-15T15:23:13;1.10;;;1.00;;
40793;SDS011;26502;51.886;15.604;2023-04-15T15:28:19;6.50;;;5.50;;
40793;SDS011;26502;51.886;15.604;2023-04-15T15:33:28;3.30;;;2.60;;
40793;SDS011;26502;51.886;15.604;2023-04-15T15:38:34;1.40;;;1.00;;
40793;SDS011;26502;51.886;15.604;2023-04-15T15:43:41;1.40;;;1.30;;
40793;SDS011;26502;51.886;15.604;2023-04-15T15:48:47;2.00;;;1.70;;
40793;SDS011;26502;51.886;15.604;2023-04-15T15:53:54;15.60;;;9.50;;
40793;SDS011;26502;51.886;15.604;2023-04-15T15:59:00;5.00;;;3.00;;
40793;SDS011;26502;51.886;15.604;2023-04-15T16:04:06;3.70;;;1.80;;
40793;SDS011;26502;51.886;15.604;2023-04-15T16:09:13;11.20;;;4.70;;
40793;SDS011;26502;51.886;15.604;2023-04-15T16:14:20;21.70;;;11.60;;
40793;SDS011;26502;51.886;15.604;2023-04-15T16:19:27;9.30;;;4.90;;
40793;SDS011;26502;51.886;15.604;2023-04-15T16:24:33;21.30;;;11.20;;
40793;SDS011;26502;51.886;15.604;2023-04-15T16:29:40;20.40;;;10.30;;
40793;SDS011;26502;51.886;15.604;2023-04-15T16:34:46;11.20;;;7.90;;
40793;SDS011;26502;51.886;15.604;2023-04-15T16:39:52;5.80;;;4.80;;
40793;SDS011;26502;51.886;15.604;2023-04-15T16:44:59;8.90;;;5.90;;
40793;SDS011;26502;51.886;15.604;2023-04-15T16:50:05;6.00;;;3.60;;
40793;SDS011;26502;51.886;15.604;2023-04-15T16:55:13;8.80;;;7.20;;
40793;SDS011;26502;51.886;15.604;2023-04-15T17:00:20;7.30;;;5.30;;
40793;SDS011;26502;51.886;15.604;2023-04-15T17:05:26;8.60;;;6.40;;
40793;SDS011;26502;51.886;15.604;2023-04-15T17:10:32;9.60;;;6.40;;
40793;SDS011;26502;51.886;15.604;2023-04-15T17:15:39;9.20;;;6.30;;
40793;SDS011;26502;51.886;15.604;2023-04-15T17:20:45;11.20;;;7.20;;
40793;SDS011;26502;51.886;15.604;2023-04-15T17:25:51;8.50;;;6.60;;
40793;SDS011;26502;51.886;15.604;2023-04-15T17:30:58;10.50;;;7.60;;
40793;SDS011;26502;51.886;15.604;2023-04-15T17:36:04;9.00;;;6.40;;
40793;SDS011;26502;51.886;15.604;2023-04-15T17:41:11;9.60;;;7.10;;
40793;SDS011;26502;51.886;15.604;2023-04-15T17:46:17;9.40;;;7.30;;
40793;SDS011;26502;51.886;15.604;2023-04-15T17:51:26;12.10;;;7.40;;
40793;SDS011;26502;51.886;15.604;2023-04-15T17:56:43;9.80;;;7.00;;
40793;SDS011;26502;51.886;15.604;2023-04-15T18:01:51;15.20;;;10.50;;
40793;SDS011;26502;51.886;15.604;2023-04-15T18:06:57;14.40;;;10.80;;
40793;SDS011;26502;51.886;15.604;2023-04-15T18:12:05;12.90;;;8.70;;
40793;SDS011;26502;51.886;15.604;2023-04-15T18:17:12;14.40;;;9.40;;
40793;SDS011;26502;51.886;15.604;2023-04-15T18:22:18;16.30;;;10.10;;
40793;SDS011;26502;51.886;15.604;2023-04-15T18:27:25;12.40;;;8.80;;
40793;SDS011;26502;51.886;15.604;2023-04-15T18:32:32;17.10;;;10.30;;
40793;SDS011;26502;51.886;15.604;2023-04-15T18:37:38;17.60;;;11.40;;
40793;SDS011;26502;51.886;15.604;2023-04-15T18:42:45;15.50;;;10.20;;
40793;SDS011;26502;51.886;15.604;2023-04-15T18:47:51;14.20;;;10.90;;
40793;SDS011;26502;51.886;15.604;2023-04-15T18:52:57;15.40;;;10.50;;
40793;SDS011;26502;51.886;15.604;2023-04-15T18:58:04;16.00;;;10.20;;
40793;SDS011;26502;51.886;15.604;2023-04-15T19:03:10;15.60;;;9.90;;
40793;SDS011;26502;51.886;15.604;2023-04-15T19:08:17;10.60;;;8.50;;
40793;SDS011;26502;51.886;15.604;2023-04-15T19:13:23;17.60;;;10.00;;
40793;SDS011;26502;51.886;15.604;2023-04-15T19:18:30;14.50;;;8.90;;
40793;SDS011;26502;51.886;15.604;2023-04-15T19:23:37;17.40;;;9.50;;
40793;SDS011;26502;51.886;15.604;2023-04-15T19:28:44;19.10;;;12.00;;
40793;SDS011;26502;51.886;15.604;2023-04-15T19:33:50;18.20;;;11.40;;
40793;SDS011;26502;51.886;15.604;2023-04-15T19:38:57;14.20;;;10.10;;
40793;SDS011;26502;51.886;15.604;2023-04-15T19:44:04;15.10;;;10.40;;
40793;SDS011;26502;51.886;15.604;2023-04-15T19:49:11;15.40;;;10.10;;
40793;SDS011;26502;51.886;15.604;2023-04-15T19:54:17;14.50;;;10.40;;
40793;SDS011;26502;51.886;15.604;2023-04-15T19:59:25;16.50;;;10.10;;
40793;SDS011;26502;51.886;15.604;2023-04-15T20:04:31;17.00;;;9.50;;
40793;SDS011;26502;51.886;15.604;2023-04-15T20:09:37;14.10;;;9.70;;
40793;SDS011;26502;51.886;15.604;2023-04-15T20:14:45;16.60;;;10.40;;
40793;SDS011;26502;51.886;15.604;2023-04-15T20:19:51;13.10;;;9.30;;
40793;SDS011;26502;51.886;15.604;2023-04-15T20:24:58;13.80;;;9.50;;
40793;SDS011;26502;51.886;15.604;2023-04-15T20:30:06;11.60;;;8.80;;
40793;SDS011;26502;51.886;15.604;2023-04-15T20:35:14;17.10;;;9.60;;
40793;SDS011;26502;51.886;15.604;2023-04-15T20:40:20;13.80;;;9.60;;
40793;SDS011;26502;51.886;15.604;2023-04-15T20:45:26;14.70;;;9.80;;
40793;SDS011;26502;51.886;15.604;2023-04-15T20:50:32;12.80;;;8.60;;
40793;SDS011;26502;51.886;15.604;2023-04-15T20:55:38;12.60;;;8.50;;
40793;SDS011;26502;51.886;15.604;2023-04-15T21:00:45;11.60;;;8.60;;
40793;SDS011;26502;51.886;15.604;2023-04-15T21:05:52;10.20;;;7.60;;
40793;SDS011;26502;51.886;15.604;2023-04-15T21:10:58;9.60;;;6.90;;
40793;SDS011;26502;51.886;15.604;2023-04-15T21:16:05;11.80;;;7.80;;
40793;SDS011;26502;51.886;15.604;2023-04-15T21:21:12;10.60;;;6.70;;
40793;SDS011;26502;51.886;15.604;2023-04-15T21:26:19;9.30;;;7.00;;
40793;SDS011;26502;51.886;15.604;2023-04-15T21:31:25;14.70;;;7.90;;
40793;SDS011;26502;51.886;15.604;2023-04-15T21:36:32;11.00;;;7.50;;
40793;SDS011;26502;51.886;15.604;2023-04-15T21:41:40;14.30;;;8.20;;
40793;SDS011;26502;51.886;15.604;2023-04-15T21:46:46;11.90;;;7.50;;
40793;SDS011;26502;51.886;15.604;2023-04-15T21:51:52;13.30;;;8.80;;
40793;SDS011;26502;51.886;15.604;2023-04-15T21:57:02;11.60;;;7.60;;
40793;SDS011;26502;51.886;15.604;2023-04-15T22:02:09;13.30;;;8.20;;
40793;SDS011;26502;51.886;15.604;2023-04-15T22:07:15;12.80;;;7.90;;
40793;SDS011;26502;51.886;15.604;2023-04-15T22:12:21;14.10;;;7.80;;
40793;SDS011;26502;51.886;15.604;2023-04-15T22:17:27;14.80;;;7.90;;
40793;SDS011;26502;51.886;15.604;2023-04-15T22:22:33;12.00;;;7.70;;
40793;SDS011;26502;51.886;15.604;2023-04-15T22:27:40;13.50;;;8.90;;
40793;SDS011;26502;51.886;15.604;2023-04-15T22:32:46;12.40;;;8.30;;
40793;SDS011;26502;51.886;15.604;2023-04-15T22:37:52;13.00;;;7.90;;
40793;SDS011;26502;51.886;15.604;2023-04-15T22:42:59;13.70;;;9.10;;
40793;SDS011;26502;51.886;15.604;2023-04-15T22:48:05;19.70;;;9.70;;
40793;SDS011;26502;51.886;15.604;2023-04-15T22:53:14;20.10;;;10.00;;
40793;SDS011;26502;51.886;15.604;2023-04-15T22:58:21;18.20;;;10.70;;
40793;SDS011;26502;51.886;15.604;2023-04-15T23:03:29;15.60;;;9.20;;
40793;SDS011;26502;51.886;15.604;2023-04-15T23:08:35;11.80;;;8.30;;
40793;SDS011;26502;51.886;15.604;2023-04-15T23:13:41;12.50;;;7.60;;
40793;SDS011;26502;51.886;15.604;2023-04-15T23:18:47;11.40;;;7.00;;
40793;SDS011;26502;51.886;15.604;2023-04-15T23:23:53;11.60;;;6.70;;
40793;SDS011;26502;51.886;15.604;2023-04-15T23:28:59;11.60;;;7.10;;
40793;SDS011;26502;51.886;15.604;2023-04-15T23:34:06;9.00;;;7.10;;
40793;SDS011;26502;51.886;15.604;2023-04-15T23:39:12;13.20;;;8.30;;
40793;SDS011;26502;51.886;15.604;2023-04-15T23:44:18;11.00;;;7.10;;
40793;SDS011;26502;51.886;15.604;2023-04-15T23:49:24;10.20;;;6.40;;
40793;SDS011;26502;51.886;15.604;2023-04-15T23:54:30;12.60;;;7.60;;
40793;SDS011;26502;51.886;15.604;2023-04-15T23:59:37;13.40;;;7.20;;
